This is the latest recevied weather packets stored in our database for station/object AA3CS-1. If no packets are shown the sender has not sent any weather packets the latest 10 day(s).
| Time | Temp. | Humidity | Pressure | Rain* | Wind** | Luminosity | Snow |
|---|---|---|---|---|---|---|---|
| 1777657517 | 5.56° C | 90% | 1012 hPa | 2.03 mm | - | 89 W/m² | - |
| 1777657217 | 5.56° C | 89% | 1011.9 hPa | 2.03 mm | - | 82 W/m² | - |
| 1777656317 | 5.56° C | 89% | 1011.9 hPa | 1.52 mm | - | 40 W/m² | - |
| 1777656017 | 5.56° C | 89% | 1011.8 hPa | 1.27 mm | - | 43 W/m² | - |
| 1777652717 | 6.11° C | 88% | 1011.9 hPa | 1.27 mm | - | 76 W/m² | - |
| 1777651517 | 6.11° C | 88% | 1011.8 hPa | 1.52 mm | - | 103 W/m² | - |
| 1777648857 | 6.11° C | 89% | 1012.2 hPa | 1.52 mm | - | 64 W/m² | - |
| 1777647917 | 6.11° C | 89% | 1012.1 hPa | 1.52 mm | - | 51 W/m² | - |
| 1777646417 | 6.11° C | 88% | 1012.3 hPa | 1.52 mm | - | 114 W/m² | - |
| 1777646117 | 6.11° C | 89% | 1012.3 hPa | 1.52 mm | - | 110 W/m² | - |
| 1777645217 | 6.11° C | 88% | 1012.3 hPa | 1.02 mm | - | 60 W/m² | - |
| 1777643416 | 5.56° C | 88% | 1012.4 hPa | 0.51 mm | - | 49 W/m² | - |
| 1777642237 | 6.11° C | 87% | 1012.6 hPa | 0.25 mm | - | 40 W/m² | - |
| 1777641917 | 6.11° C | 88% | 1012.7 hPa | 0.25 mm | - | 35 W/m² | - |
| 1777640717 | 6.11° C | 88% | 1012.4 hPa | 0 mm | - | 29 W/m² | - |
| 1777636816 | 5.56° C | 86% | 1012.7 hPa | 0.25 mm | - | 53 W/m² | - |
| 1777636516 | 5.56° C | 87% | 1012.6 hPa | 0.25 mm | - | 42 W/m² | - |
| 1777635336 | 5.56° C | 85% | 1013 hPa | 0.25 mm | - | 24 W/m² | - |
| 1777634416 | 5.56° C | 82% | 1013.2 hPa | 0 mm | - | 11 W/m² | - |
| 1777627816 | 5.56° C | 80% | 1013.2 hPa | 0 mm | - | 0 W/m² | - |
| 1777627517 | 5.56° C | 80% | 1013.2 hPa | 0 mm | - | 0 W/m² | - |
| 1777626637 | 5.56° C | 79% | 1013.4 hPa | 0 mm | - | 0 W/m² | - |
| 1777626316 | 5.56° C | 79% | 1013.5 hPa | 0 mm | - | 0 W/m² | - |
| 1777622116 | 5° C | 79% | 1013.1 hPa | 0 mm | - | 0 W/m² | - |
| 1777620316 | 5.56° C | 79% | 1013.4 hPa | 0 mm | - | 0 W/m² | - |
* Rain latest hour (hover to see other rain measurements)
** Current wind speed in m/s (hover to see current wind gust speed)